sensor_id;sensor_type;location;lat;lon;timestamp;temperature;humidity
9209;DHT22;4639;48.862;9.188;2023-06-04T00:01:37;18.60;99.90
9209;DHT22;4639;48.862;9.188;2023-06-04T00:04:02;18.50;99.90
9209;DHT22;4639;48.862;9.188;2023-06-04T00:06:28;18.40;99.90
9209;DHT22;4639;48.862;9.188;2023-06-04T00:08:53;18.30;99.90
9209;DHT22;4639;48.862;9.188;2023-06-04T00:11:19;18.30;99.90
9209;DHT22;4639;48.862;9.188;2023-06-04T00:13:45;18.30;99.90
9209;DHT22;4639;48.862;9.188;2023-06-04T00:16:13;18.30;99.90
9209;DHT22;4639;48.862;9.188;2023-06-04T00:18:39;18.30;99.90
9209;DHT22;4639;48.862;9.188;2023-06-04T00:21:04;18.20;99.90
9209;DHT22;4639;48.862;9.188;2023-06-04T00:23:30;18.20;99.90
9209;DHT22;4639;48.862;9.188;2023-06-04T00:25:56;18.30;99.90
9209;DHT22;4639;48.862;9.188;2023-06-04T00:28:21;18.20;99.90
9209;DHT22;4639;48.862;9.188;2023-06-04T00:30:47;18.20;99.90
9209;DHT22;4639;48.862;9.188;2023-06-04T00:33:13;18.20;99.90
9209;DHT22;4639;48.862;9.188;2023-06-04T00:35:38;18.10;99.90
9209;DHT22;4639;48.862;9.188;2023-06-04T00:38:04;18.00;99.90
9209;DHT22;4639;48.862;9.188;2023-06-04T00:40:29;17.90;99.90
9209;DHT22;4639;48.862;9.188;2023-06-04T00:42:55;17.90;99.90
9209;DHT22;4639;48.862;9.188;2023-06-04T00:45:23;17.90;99.90
9209;DHT22;4639;48.862;9.188;2023-06-04T00:47:51;17.80;99.90
9209;DHT22;4639;48.862;9.188;2023-06-04T00:50:17;17.80;99.90
9209;DHT22;4639;48.862;9.188;2023-06-04T00:52:43;17.80;99.90
9209;DHT22;4639;48.862;9.188;2023-06-04T00:55:10;17.70;99.90
9209;DHT22;4639;48.862;9.188;2023-06-04T00:57:37;17.70;99.90
9209;DHT22;4639;48.862;9.188;2023-06-04T01:00:03;17.60;99.90
9209;DHT22;4639;48.862;9.188;2023-06-04T01:02:31;17.50;99.90
9209;DHT22;4639;48.862;9.188;2023-06-04T01:05:21;17.40;99.90
9209;DHT22;4639;48.862;9.188;2023-06-04T01:07:50;17.40;99.90
9209;DHT22;4639;48.862;9.188;2023-06-04T01:10:16;17.40;99.90
9209;DHT22;4639;48.862;9.188;2023-06-04T01:12:42;17.30;99.90
9209;DHT22;4639;48.862;9.188;2023-06-04T01:15:09;17.20;99.90
9209;DHT22;4639;48.862;9.188;2023-06-04T01:17:43;17.20;99.90
9209;DHT22;4639;48.862;9.188;2023-06-04T01:25:36;17.20;99.90
9209;DHT22;4639;48.862;9.188;2023-06-04T01:28:07;17.10;99.90
9209;DHT22;4639;48.862;9.188;2023-06-04T01:30:35;17.00;99.90
9209;DHT22;4639;48.862;9.188;2023-06-04T01:33:09;16.90;99.90
9209;DHT22;4639;48.862;9.188;2023-06-04T01:35:36;16.90;99.90
9209;DHT22;4639;48.862;9.188;2023-06-04T01:38:02;16.90;99.90
9209;DHT22;4639;48.862;9.188;2023-06-04T01:40:28;16.80;99.90
9209;DHT22;4639;48.862;9.188;2023-06-04T01:42:54;16.80;99.90
9209;DHT22;4639;48.862;9.188;2023-06-04T01:45:22;16.80;99.90
9209;DHT22;4639;48.862;9.188;2023-06-04T01:47:47;16.70;99.90
9209;DHT22;4639;48.862;9.188;2023-06-04T01:50:16;16.70;99.90
9209;DHT22;4639;48.862;9.188;2023-06-04T01:52:42;16.60;99.90
9209;DHT22;4639;48.862;9.188;2023-06-04T01:55:10;16.60;99.90
9209;DHT22;4639;48.862;9.188;2023-06-04T01:57:37;16.60;99.90
9209;DHT22;4639;48.862;9.188;2023-06-04T02:00:04;16.60;99.90
9209;DHT22;4639;48.862;9.188;2023-06-04T02:02:34;16.60;99.90
9209;DHT22;4639;48.862;9.188;2023-06-04T02:05:01;16.60;99.90
9209;DHT22;4639;48.862;9.188;2023-06-04T02:07:27;16.50;99.90
9209;DHT22;4639;48.862;9.188;2023-06-04T02:09:52;16.50;99.90
9209;DHT22;4639;48.862;9.188;2023-06-04T02:12:18;16.60;99.90
9209;DHT22;4639;48.862;9.188;2023-06-04T02:14:44;16.50;99.90
9209;DHT22;4639;48.862;9.188;2023-06-04T02:17:12;16.40;99.90
9209;DHT22;4639;48.862;9.188;2023-06-04T02:19:47;16.40;99.90
9209;DHT22;4639;48.862;9.188;2023-06-04T02:22:19;16.40;99.90
9209;DHT22;4639;48.862;9.188;2023-06-04T02:24:46;16.30;99.90
9209;DHT22;4639;48.862;9.188;2023-06-04T02:27:13;16.40;99.90
9209;DHT22;4639;48.862;9.188;2023-06-04T02:29:40;16.30;99.90
9209;DHT22;4639;48.862;9.188;2023-06-04T02:32:06;16.30;99.90
9209;DHT22;4639;48.862;9.188;2023-06-04T02:34:32;16.30;99.90
9209;DHT22;4639;48.862;9.188;2023-06-04T02:36:59;16.20;99.90
9209;DHT22;4639;48.862;9.188;2023-06-04T02:39:25;16.10;99.90
9209;DHT22;4639;48.862;9.188;2023-06-04T02:41:51;16.10;99.90
9209;DHT22;4639;48.862;9.188;2023-06-04T02:44:16;16.10;99.90
9209;DHT22;4639;48.862;9.188;2023-06-04T02:46:43;16.10;99.90
9209;DHT22;4639;48.862;9.188;2023-06-04T02:49:10;16.10;99.90
9209;DHT22;4639;48.862;9.188;2023-06-04T02:51:42;16.10;99.90
9209;DHT22;4639;48.862;9.188;2023-06-04T02:54:07;16.10;99.90
9209;DHT22;4639;48.862;9.188;2023-06-04T02:56:34;16.10;99.90
9209;DHT22;4639;48.862;9.188;2023-06-04T02:59:00;16.10;99.90
9209;DHT22;4639;48.862;9.188;2023-06-04T03:01:26;16.00;99.90
9209;DHT22;4639;48.862;9.188;2023-06-04T03:03:53;16.00;99.90
9209;DHT22;4639;48.862;9.188;2023-06-04T03:06:20;16.00;99.90
9209;DHT22;4639;48.862;9.188;2023-06-04T03:08:47;16.00;99.90
9209;DHT22;4639;48.862;9.188;2023-06-04T03:11:13;16.00;99.90
9209;DHT22;4639;48.862;9.188;2023-06-04T03:13:38;16.00;99.90
9209;DHT22;4639;48.862;9.188;2023-06-04T03:16:05;16.00;99.90
9209;DHT22;4639;48.862;9.188;2023-06-04T03:18:41;15.90;99.90
9209;DHT22;4639;48.862;9.188;2023-06-04T03:21:08;15.90;99.90
9209;DHT22;4639;48.862;9.188;2023-06-04T03:23:34;15.90;99.90
9209;DHT22;4639;48.862;9.188;2023-06-04T03:26:04;15.90;99.90
9209;DHT22;4639;48.862;9.188;2023-06-04T03:28:30;15.90;99.90
9209;DHT22;4639;48.862;9.188;2023-06-04T03:30:56;15.90;99.90
9209;DHT22;4639;48.862;9.188;2023-06-04T03:33:22;15.80;99.90
9209;DHT22;4639;48.862;9.188;2023-06-04T03:35:48;15.80;99.90
9209;DHT22;4639;48.862;9.188;2023-06-04T03:38:14;15.70;99.90
9209;DHT22;4639;48.862;9.188;2023-06-04T03:40:43;15.70;99.90
9209;DHT22;4639;48.862;9.188;2023-06-04T03:43:09;15.70;99.90
9209;DHT22;4639;48.862;9.188;2023-06-04T03:45:35;15.60;99.90
9209;DHT22;4639;48.862;9.188;2023-06-04T03:48:01;15.50;99.90
9209;DHT22;4639;48.862;9.188;2023-06-04T03:50:26;15.50;99.90
9209;DHT22;4639;48.862;9.188;2023-06-04T03:52:55;15.60;99.90
9209;DHT22;4639;48.862;9.188;2023-06-04T03:55:20;15.50;99.90
9209;DHT22;4639;48.862;9.188;2023-06-04T03:57:46;15.50;99.90
9209;DHT22;4639;48.862;9.188;2023-06-04T04:00:13;15.50;99.90
9209;DHT22;4639;48.862;9.188;2023-06-04T04:02:40;15.50;99.90
9209;DHT22;4639;48.862;9.188;2023-06-04T04:05:06;15.50;99.90
9209;DHT22;4639;48.862;9.188;2023-06-04T04:07:36;15.60;99.90
9209;DHT22;4639;48.862;9.188;2023-06-04T04:10:02;15.60;99.90
9209;DHT22;4639;48.862;9.188;2023-06-04T04:12:27;15.50;99.90
9209;DHT22;4639;48.862;9.188;2023-06-04T04:14:53;15.40;99.90
9209;DHT22;4639;48.862;9.188;2023-06-04T04:17:18;15.40;99.90
9209;DHT22;4639;48.862;9.188;2023-06-04T04:19:44;15.40;99.90
9209;DHT22;4639;48.862;9.188;2023-06-04T04:22:10;15.50;99.90
9209;DHT22;4639;48.862;9.188;2023-06-04T04:24:36;15.50;99.90
9209;DHT22;4639;48.862;9.188;2023-06-04T04:27:03;15.50;99.90
9209;DHT22;4639;48.862;9.188;2023-06-04T04:29:36;15.50;99.90
9209;DHT22;4639;48.862;9.188;2023-06-04T04:32:02;15.50;99.90
9209;DHT22;4639;48.862;9.188;2023-06-04T04:34:38;15.50;99.90
9209;DHT22;4639;48.862;9.188;2023-06-04T04:37:08;15.50;99.90
9209;DHT22;4639;48.862;9.188;2023-06-04T04:39:35;15.60;99.90
9209;DHT22;4639;48.862;9.188;2023-06-04T04:42:02;15.50;99.90
9209;DHT22;4639;48.862;9.188;2023-06-04T04:44:27;15.60;99.90
9209;DHT22;4639;48.862;9.188;2023-06-04T04:46:53;15.60;99.90
9209;DHT22;4639;48.862;9.188;2023-06-04T04:49:22;15.60;99.90
9209;DHT22;4639;48.862;9.188;2023-06-04T04:51:47;15.60;99.90
9209;DHT22;4639;48.862;9.188;2023-06-04T04:54:13;15.50;99.90
9209;DHT22;4639;48.862;9.188;2023-06-04T04:56:38;15.50;99.90
9209;DHT22;4639;48.862;9.188;2023-06-04T04:59:04;15.60;99.90
9209;DHT22;4639;48.862;9.188;2023-06-04T05:01:29;15.60;99.90
9209;DHT22;4639;48.862;9.188;2023-06-04T05:03:55;15.60;99.90
9209;DHT22;4639;48.862;9.188;2023-06-04T05:06:21;15.70;99.90
9209;DHT22;4639;48.862;9.188;2023-06-04T05:08:47;15.80;99.90
9209;DHT22;4639;48.862;9.188;2023-06-04T05:11:13;15.80;99.90
9209;DHT22;4639;48.862;9.188;2023-06-04T05:13:38;15.70;99.90
9209;DHT22;4639;48.862;9.188;2023-06-04T05:16:04;15.70;99.90
9209;DHT22;4639;48.862;9.188;2023-06-04T05:18:32;15.70;99.90
9209;DHT22;4639;48.862;9.188;2023-06-04T05:20:58;16.00;99.90
9209;DHT22;4639;48.862;9.188;2023-06-04T05:23:26;15.80;99.90
9209;DHT22;4639;48.862;9.188;2023-06-04T05:25:52;15.90;99.90
9209;DHT22;4639;48.862;9.188;2023-06-04T05:28:18;15.90;99.90
9209;DHT22;4639;48.862;9.188;2023-06-04T05:30:52;15.90;99.90
9209;DHT22;4639;48.862;9.188;2023-06-04T05:33:24;15.90;99.90
9209;DHT22;4639;48.862;9.188;2023-06-04T05:35:50;15.90;99.90
9209;DHT22;4639;48.862;9.188;2023-06-04T05:38:17;15.90;99.90
9209;DHT22;4639;48.862;9.188;2023-06-04T05:40:46;16.00;99.90
9209;DHT22;4639;48.862;9.188;2023-06-04T05:43:12;15.90;99.90
9209;DHT22;4639;48.862;9.188;2023-06-04T05:45:37;15.90;99.90
9209;DHT22;4639;48.862;9.188;2023-06-04T05:48:04;16.00;99.90
9209;DHT22;4639;48.862;9.188;2023-06-04T05:50:29;16.00;99.90
9209;DHT22;4639;48.862;9.188;2023-06-04T05:52:56;16.10;99.90
9209;DHT22;4639;48.862;9.188;2023-06-04T05:55:22;16.10;99.90
9209;DHT22;4639;48.862;9.188;2023-06-04T05:57:53;16.10;99.90
9209;DHT22;4639;48.862;9.188;2023-06-04T06:00:19;16.20;99.90
9209;DHT22;4639;48.862;9.188;2023-06-04T06:02:45;16.20;99.90
9209;DHT22;4639;48.862;9.188;2023-06-04T06:05:14;16.30;99.90
9209;DHT22;4639;48.862;9.188;2023-06-04T06:07:40;16.40;99.90
9209;DHT22;4639;48.862;9.188;2023-06-04T06:10:06;16.40;99.90
9209;DHT22;4639;48.862;9.188;2023-06-04T06:12:32;16.40;99.90
9209;DHT22;4639;48.862;9.188;2023-06-04T06:14:58;16.50;99.90
9209;DHT22;4639;48.862;9.188;2023-06-04T06:17:23;16.50;99.90
9209;DHT22;4639;48.862;9.188;2023-06-04T06:19:49;16.50;99.90
9209;DHT22;4639;48.862;9.188;2023-06-04T06:22:15;16.60;99.90
9209;DHT22;4639;48.862;9.188;2023-06-04T06:24:41;16.60;99.90
9209;DHT22;4639;48.862;9.188;2023-06-04T06:27:06;16.50;99.90
9209;DHT22;4639;48.862;9.188;2023-06-04T06:29:32;16.60;99.90
9209;DHT22;4639;48.862;9.188;2023-06-04T06:31:58;16.80;99.90
9209;DHT22;4639;48.862;9.188;2023-06-04T06:34:24;16.80;99.90
9209;DHT22;4639;48.862;9.188;2023-06-04T06:36:50;16.90;99.90
9209;DHT22;4639;48.862;9.188;2023-06-04T06:39:16;17.00;99.90
9209;DHT22;4639;48.862;9.188;2023-06-04T06:41:42;17.10;99.90
9209;DHT22;4639;48.862;9.188;2023-06-04T06:44:07;17.10;99.90
9209;DHT22;4639;48.862;9.188;2023-06-04T06:46:35;17.20;99.90
9209;DHT22;4639;48.862;9.188;2023-06-04T06:49:01;17.20;99.90
9209;DHT22;4639;48.862;9.188;2023-06-04T06:51:27;17.20;99.90
9209;DHT22;4639;48.862;9.188;2023-06-04T06:53:52;17.30;99.90
9209;DHT22;4639;48.862;9.188;2023-06-04T06:56:18;17.30;99.90
9209;DHT22;4639;48.862;9.188;2023-06-04T06:58:44;17.30;99.90
9209;DHT22;4639;48.862;9.188;2023-06-04T07:01:10;17.30;99.90
9209;DHT22;4639;48.862;9.188;2023-06-04T07:03:36;17.50;99.90
9209;DHT22;4639;48.862;9.188;2023-06-04T07:06:03;17.50;99.90
9209;DHT22;4639;48.862;9.188;2023-06-04T07:08:29;17.60;99.90
9209;DHT22;4639;48.862;9.188;2023-06-04T07:10:54;17.80;99.90
9209;DHT22;4639;48.862;9.188;2023-06-04T07:13:22;17.90;99.90
9209;DHT22;4639;48.862;9.188;2023-06-04T07:15:48;17.90;99.90
9209;DHT22;4639;48.862;9.188;2023-06-04T07:18:13;18.00;99.90
9209;DHT22;4639;48.862;9.188;2023-06-04T07:20:39;18.10;99.90
9209;DHT22;4639;48.862;9.188;2023-06-04T07:23:04;18.20;99.90
9209;DHT22;4639;48.862;9.188;2023-06-04T07:25:32;18.30;99.90
9209;DHT22;4639;48.862;9.188;2023-06-04T07:27:57;18.50;99.90
9209;DHT22;4639;48.862;9.188;2023-06-04T07:30:24;18.70;99.90
9209;DHT22;4639;48.862;9.188;2023-06-04T07:32:50;18.80;99.90
9209;DHT22;4639;48.862;9.188;2023-06-04T07:35:16;18.80;99.90
9209;DHT22;4639;48.862;9.188;2023-06-04T07:37:42;18.90;99.90
9209;DHT22;4639;48.862;9.188;2023-06-04T07:40:11;18.90;99.90
9209;DHT22;4639;48.862;9.188;2023-06-04T07:42:41;18.90;99.90
9209;DHT22;4639;48.862;9.188;2023-06-04T07:45:08;19.10;99.90
9209;DHT22;4639;48.862;9.188;2023-06-04T07:47:35;19.30;99.90
9209;DHT22;4639;48.862;9.188;2023-06-04T07:50:01;19.40;99.90
9209;DHT22;4639;48.862;9.188;2023-06-04T07:52:26;19.50;99.90
9209;DHT22;4639;48.862;9.188;2023-06-04T07:54:52;19.50;99.90
9209;DHT22;4639;48.862;9.188;2023-06-04T07:57:18;19.60;99.90
9209;DHT22;4639;48.862;9.188;2023-06-04T07:59:43;19.70;99.90
9209;DHT22;4639;48.862;9.188;2023-06-04T08:02:09;19.80;99.90
9209;DHT22;4639;48.862;9.188;2023-06-04T08:04:34;20.00;99.90
9209;DHT22;4639;48.862;9.188;2023-06-04T08:07:00;20.20;99.90
9209;DHT22;4639;48.862;9.188;2023-06-04T08:09:26;20.30;99.90
9209;DHT22;4639;48.862;9.188;2023-06-04T08:11:51;20.30;99.90
9209;DHT22;4639;48.862;9.188;2023-06-04T08:14:17;20.50;99.90
9209;DHT22;4639;48.862;9.188;2023-06-04T08:16:43;20.40;99.90
9209;DHT22;4639;48.862;9.188;2023-06-04T08:19:09;20.40;99.90
9209;DHT22;4639;48.862;9.188;2023-06-04T08:21:35;20.40;99.90
9209;DHT22;4639;48.862;9.188;2023-06-04T08:24:02;20.50;99.90
9209;DHT22;4639;48.862;9.188;2023-06-04T08:26:27;20.50;99.90
9209;DHT22;4639;48.862;9.188;2023-06-04T08:28:55;20.60;99.90
9209;DHT22;4639;48.862;9.188;2023-06-04T08:31:20;20.80;99.90
9209;DHT22;4639;48.862;9.188;2023-06-04T08:33:46;20.90;99.90
9209;DHT22;4639;48.862;9.188;2023-06-04T08:36:13;21.10;99.90
9209;DHT22;4639;48.862;9.188;2023-06-04T08:38:38;21.20;99.90
9209;DHT22;4639;48.862;9.188;2023-06-04T08:41:28;21.30;99.90
9209;DHT22;4639;48.862;9.188;2023-06-04T08:43:57;21.40;99.90
9209;DHT22;4639;48.862;9.188;2023-06-04T08:46:23;21.50;99.90
9209;DHT22;4639;48.862;9.188;2023-06-04T08:48:50;21.60;99.90
9209;DHT22;4639;48.862;9.188;2023-06-04T08:51:16;21.60;99.90
9209;DHT22;4639;48.862;9.188;2023-06-04T08:53:42;21.60;99.90
9209;DHT22;4639;48.862;9.188;2023-06-04T08:56:08;21.80;99.90
9209;DHT22;4639;48.862;9.188;2023-06-04T08:58:36;22.00;99.90
9209;DHT22;4639;48.862;9.188;2023-06-04T09:01:02;22.10;99.90
9209;DHT22;4639;48.862;9.188;2023-06-04T09:03:29;22.10;99.90
9209;DHT22;4639;48.862;9.188;2023-06-04T09:06:01;22.00;99.90
9209;DHT22;4639;48.862;9.188;2023-06-04T09:08:37;22.10;99.90
9209;DHT22;4639;48.862;9.188;2023-06-04T09:11:08;22.20;99.90
9209;DHT22;4639;48.862;9.188;2023-06-04T09:13:51;22.50;99.90
9209;DHT22;4639;48.862;9.188;2023-06-04T09:16:18;22.50;99.90
9209;DHT22;4639;48.862;9.188;2023-06-04T09:18:44;22.80;99.90
9209;DHT22;4639;48.862;9.188;2023-06-04T09:21:10;23.00;99.90
9209;DHT22;4639;48.862;9.188;2023-06-04T09:23:57;23.10;98.50
9209;DHT22;4639;48.862;9.188;2023-06-04T09:26:24;23.10;99.90
9209;DHT22;4639;48.862;9.188;2023-06-04T09:28:50;23.20;99.00
9209;DHT22;4639;48.862;9.188;2023-06-04T09:31:18;23.40;99.60
9209;DHT22;4639;48.862;9.188;2023-06-04T09:33:50;23.50;99.90
9209;DHT22;4639;48.862;9.188;2023-06-04T09:36:16;23.70;99.20
9209;DHT22;4639;48.862;9.188;2023-06-04T09:38:42;23.80;98.80
9209;DHT22;4639;48.862;9.188;2023-06-04T09:41:15;23.90;99.30
9209;DHT22;4639;48.862;9.188;2023-06-04T09:43:41;24.00;97.30
9209;DHT22;4639;48.862;9.188;2023-06-04T09:46:16;24.00;98.60
9209;DHT22;4639;48.862;9.188;2023-06-04T09:48:43;24.00;98.00
9209;DHT22;4639;48.862;9.188;2023-06-04T09:51:14;24.20;98.10
9209;DHT22;4639;48.862;9.188;2023-06-04T09:53:54;24.20;97.40
9209;DHT22;4639;48.862;9.188;2023-06-04T09:56:20;24.40;97.50
9209;DHT22;4639;48.862;9.188;2023-06-04T09:58:48;24.50;97.20
9209;DHT22;4639;48.862;9.188;2023-06-04T10:01:14;24.50;96.90
9209;DHT22;4639;48.862;9.188;2023-06-04T10:03:43;24.60;96.80
9209;DHT22;4639;48.862;9.188;2023-06-04T10:06:14;24.80;96.80
9209;DHT22;4639;48.862;9.188;2023-06-04T10:08:42;24.90;97.10
9209;DHT22;4639;48.862;9.188;2023-06-04T10:11:09;25.20;97.00
9209;DHT22;4639;48.862;9.188;2023-06-04T10:13:51;25.30;96.10
9209;DHT22;4639;48.862;9.188;2023-06-04T10:16:19;25.30;95.20
9209;DHT22;4639;48.862;9.188;2023-06-04T10:18:45;25.30;95.80
9209;DHT22;4639;48.862;9.188;2023-06-04T10:21:15;25.60;95.60
9209;DHT22;4639;48.862;9.188;2023-06-04T10:23:44;25.90;96.20
9209;DHT22;4639;48.862;9.188;2023-06-04T10:26:13;26.10;94.90
9209;DHT22;4639;48.862;9.188;2023-06-04T10:28:41;26.20;95.50
9209;DHT22;4639;48.862;9.188;2023-06-04T10:31:09;26.20;94.00
9209;DHT22;4639;48.862;9.188;2023-06-04T10:33:34;26.20;94.50
9209;DHT22;4639;48.862;9.188;2023-06-04T10:36:15;26.30;95.20
9209;DHT22;4639;48.862;9.188;2023-06-04T10:38:59;26.40;94.70
9209;DHT22;4639;48.862;9.188;2023-06-04T10:41:26;26.70;95.00
9209;DHT22;4639;48.862;9.188;2023-06-04T10:44:00;26.90;93.70
9209;DHT22;4639;48.862;9.188;2023-06-04T10:46:36;27.00;94.00
9209;DHT22;4639;48.862;9.188;2023-06-04T10:49:02;27.30;93.10
9209;DHT22;4639;48.862;9.188;2023-06-04T10:51:32;27.50;93.10
9209;DHT22;4639;48.862;9.188;2023-06-04T10:54:02;27.80;92.30
9209;DHT22;4639;48.862;9.188;2023-06-04T10:56:31;27.90;91.50
9209;DHT22;4639;48.862;9.188;2023-06-04T10:59:16;27.80;91.70
9209;DHT22;4639;48.862;9.188;2023-06-04T11:01:41;27.70;91.80
9209;DHT22;4639;48.862;9.188;2023-06-04T11:04:24;27.60;91.40
9209;DHT22;4639;48.862;9.188;2023-06-04T11:07:06;27.50;93.20
9209;DHT22;4639;48.862;9.188;2023-06-04T11:09:35;27.60;91.70
9209;DHT22;4639;48.862;9.188;2023-06-04T11:12:05;27.60;91.50
9209;DHT22;4639;48.862;9.188;2023-06-04T11:14:31;27.80;92.70
9209;DHT22;4639;48.862;9.188;2023-06-04T11:16:56;28.20;91.40
9209;DHT22;4639;48.862;9.188;2023-06-04T11:19:22;28.50;90.90
9209;DHT22;4639;48.862;9.188;2023-06-04T11:21:48;28.50;90.90
9209;DHT22;4639;48.862;9.188;2023-06-04T11:24:15;28.20;91.10
9209;DHT22;4639;48.862;9.188;2023-06-04T11:26:41;28.10;91.10
9209;DHT22;4639;48.862;9.188;2023-06-04T11:29:09;28.20;92.10
9209;DHT22;4639;48.862;9.188;2023-06-04T11:31:44;28.20;90.20
9209;DHT22;4639;48.862;9.188;2023-06-04T11:34:10;28.40;91.70
9209;DHT22;4639;48.862;9.188;2023-06-04T11:36:48;28.70;90.10
9209;DHT22;4639;48.862;9.188;2023-06-04T11:39:21;28.80;90.60
9209;DHT22;4639;48.862;9.188;2023-06-04T11:41:50;29.00;90.10
9209;DHT22;4639;48.862;9.188;2023-06-04T11:44:18;29.10;91.10
9209;DHT22;4639;48.862;9.188;2023-06-04T11:46:44;29.30;90.10
9209;DHT22;4639;48.862;9.188;2023-06-04T11:49:17;29.00;89.70
9209;DHT22;4639;48.862;9.188;2023-06-04T11:51:51;28.90;90.40
9209;DHT22;4639;48.862;9.188;2023-06-04T11:54:17;28.70;91.00
9209;DHT22;4639;48.862;9.188;2023-06-04T11:56:43;28.40;88.90
9209;DHT22;4639;48.862;9.188;2023-06-04T11:59:11;28.10;90.50
9209;DHT22;4639;48.862;9.188;2023-06-04T12:01:42;28.00;91.00
9209;DHT22;4639;48.862;9.188;2023-06-04T12:04:14;28.00;91.10
9209;DHT22;4639;48.862;9.188;2023-06-04T12:06:55;27.90;90.50
9209;DHT22;4639;48.862;9.188;2023-06-04T12:09:30;28.00;91.00
9209;DHT22;4639;48.862;9.188;2023-06-04T12:12:05;28.00;90.30
9209;DHT22;4639;48.862;9.188;2023-06-04T12:14:31;27.80;89.60
9209;DHT22;4639;48.862;9.188;2023-06-04T12:17:07;27.60;92.00
9209;DHT22;4639;48.862;9.188;2023-06-04T12:19:44;27.50;90.50
9209;DHT22;4639;48.862;9.188;2023-06-04T12:22:10;27.70;90.90
9209;DHT22;4639;48.862;9.188;2023-06-04T12:24:47;27.70;91.80
9209;DHT22;4639;48.862;9.188;2023-06-04T12:27:13;27.80;91.30
9209;DHT22;4639;48.862;9.188;2023-06-04T12:29:39;28.00;91.00
9209;DHT22;4639;48.862;9.188;2023-06-04T12:32:09;28.10;90.40
9209;DHT22;4639;48.862;9.188;2023-06-04T12:34:37;28.10;90.40
9209;DHT22;4639;48.862;9.188;2023-06-04T12:37:02;28.20;90.30
9209;DHT22;4639;48.862;9.188;2023-06-04T12:39:29;28.40;90.20
9209;DHT22;4639;48.862;9.188;2023-06-04T12:41:55;28.60;91.60
9209;DHT22;4639;48.862;9.188;2023-06-04T12:44:20;28.80;90.80
9209;DHT22;4639;48.862;9.188;2023-06-04T12:46:46;29.00;88.30
9209;DHT22;4639;48.862;9.188;2023-06-04T12:49:12;29.00;89.60
9209;DHT22;4639;48.862;9.188;2023-06-04T12:51:38;29.00;88.00
9209;DHT22;4639;48.862;9.188;2023-06-04T12:54:04;28.90;88.00
9209;DHT22;4639;48.862;9.188;2023-06-04T12:56:30;28.90;88.10
9209;DHT22;4639;48.862;9.188;2023-06-04T12:58:56;29.00;86.90
9209;DHT22;4639;48.862;9.188;2023-06-04T13:01:21;29.10;86.50
9209;DHT22;4639;48.862;9.188;2023-06-04T13:03:47;29.00;86.60
9209;DHT22;4639;48.862;9.188;2023-06-04T13:06:12;28.90;87.80
9209;DHT22;4639;48.862;9.188;2023-06-04T13:08:38;29.00;85.80
9209;DHT22;4639;48.862;9.188;2023-06-04T13:11:03;28.90;85.40
9209;DHT22;4639;48.862;9.188;2023-06-04T13:13:30;29.00;87.00
9209;DHT22;4639;48.862;9.188;2023-06-04T13:15:55;29.10;87.10
9209;DHT22;4639;48.862;9.188;2023-06-04T13:18:21;29.20;88.20
9209;DHT22;4639;48.862;9.188;2023-06-04T13:20:47;29.30;87.80
9209;DHT22;4639;48.862;9.188;2023-06-04T13:23:14;29.40;85.60
9209;DHT22;4639;48.862;9.188;2023-06-04T13:25:40;29.50;85.70
9209;DHT22;4639;48.862;9.188;2023-06-04T13:28:06;29.30;84.30
9209;DHT22;4639;48.862;9.188;2023-06-04T13:30:36;29.30;85.50
9209;DHT22;4639;48.862;9.188;2023-06-04T13:33:05;29.50;88.50
9209;DHT22;4639;48.862;9.188;2023-06-04T13:35:31;29.50;84.30
9209;DHT22;4639;48.862;9.188;2023-06-04T13:37:57;29.60;84.90
9209;DHT22;4639;48.862;9.188;2023-06-04T13:40:23;29.70;83.10
9209;DHT22;4639;48.862;9.188;2023-06-04T13:42:48;29.50;84.90
9209;DHT22;4639;48.862;9.188;2023-06-04T13:45:14;29.50;85.20
9209;DHT22;4639;48.862;9.188;2023-06-04T13:47:46;29.60;86.40
9209;DHT22;4639;48.862;9.188;2023-06-04T13:50:12;29.80;85.20
9209;DHT22;4639;48.862;9.188;2023-06-04T13:52:37;30.10;83.60
9209;DHT22;4639;48.862;9.188;2023-06-04T13:55:03;30.00;82.00
9209;DHT22;4639;48.862;9.188;2023-06-04T13:57:29;30.20;82.00
9209;DHT22;4639;48.862;9.188;2023-06-04T13:59:54;30.30;85.00
9209;DHT22;4639;48.862;9.188;2023-06-04T14:02:20;30.20;81.10
9209;DHT22;4639;48.862;9.188;2023-06-04T14:04:46;30.10;84.10
9209;DHT22;4639;48.862;9.188;2023-06-04T14:07:12;30.20;82.40
9209;DHT22;4639;48.862;9.188;2023-06-04T14:09:37;30.30;80.40
9209;DHT22;4639;48.862;9.188;2023-06-04T14:12:03;30.40;80.10
9209;DHT22;4639;48.862;9.188;2023-06-04T14:14:29;30.20;85.00
9209;DHT22;4639;48.862;9.188;2023-06-04T14:17:03;30.20;84.10
9209;DHT22;4639;48.862;9.188;2023-06-04T14:19:29;30.10;81.30
9209;DHT22;4639;48.862;9.188;2023-06-04T14:21:55;30.20;84.10
9209;DHT22;4639;48.862;9.188;2023-06-04T14:24:21;30.30;81.50
9209;DHT22;4639;48.862;9.188;2023-06-04T14:26:47;30.20;83.00
9209;DHT22;4639;48.862;9.188;2023-06-04T14:29:13;30.20;80.80
9209;DHT22;4639;48.862;9.188;2023-06-04T14:31:39;30.20;81.00
9209;DHT22;4639;48.862;9.188;2023-06-04T14:34:05;30.30;80.40
9209;DHT22;4639;48.862;9.188;2023-06-04T14:36:32;30.40;83.40
9209;DHT22;4639;48.862;9.188;2023-06-04T14:38:58;30.10;79.80
9209;DHT22;4639;48.862;9.188;2023-06-04T14:41:24;29.70;81.30
9209;DHT22;4639;48.862;9.188;2023-06-04T14:43:49;29.70;80.50
9209;DHT22;4639;48.862;9.188;2023-06-04T14:46:16;29.90;83.70
9209;DHT22;4639;48.862;9.188;2023-06-04T14:48:42;30.10;81.10
9209;DHT22;4639;48.862;9.188;2023-06-04T14:51:07;30.20;81.30
9209;DHT22;4639;48.862;9.188;2023-06-04T14:53:33;30.40;79.90
9209;DHT22;4639;48.862;9.188;2023-06-04T14:56:04;30.60;79.00
9209;DHT22;4639;48.862;9.188;2023-06-04T14:58:30;30.80;77.50
9209;DHT22;4639;48.862;9.188;2023-06-04T15:00:55;30.80;78.30
9209;DHT22;4639;48.862;9.188;2023-06-04T15:03:24;30.80;76.40
9209;DHT22;4639;48.862;9.188;2023-06-04T15:05:49;30.90;77.70
9209;DHT22;4639;48.862;9.188;2023-06-04T15:08:15;31.00;77.70
9209;DHT22;4639;48.862;9.188;2023-06-04T15:10:40;31.10;78.10
9209;DHT22;4639;48.862;9.188;2023-06-04T15:13:06;31.20;75.60
9209;DHT22;4639;48.862;9.188;2023-06-04T15:15:32;31.30;76.90
9209;DHT22;4639;48.862;9.188;2023-06-04T15:17:57;31.30;74.00
9209;DHT22;4639;48.862;9.188;2023-06-04T15:20:23;31.30;73.30
9209;DHT22;4639;48.862;9.188;2023-06-04T15:22:50;31.20;74.20
9209;DHT22;4639;48.862;9.188;2023-06-04T15:25:16;31.50;75.00
9209;DHT22;4639;48.862;9.188;2023-06-04T15:27:42;31.50;71.80
9209;DHT22;4639;48.862;9.188;2023-06-04T15:30:08;31.40;74.40
9209;DHT22;4639;48.862;9.188;2023-06-04T15:32:33;31.30;73.90
9209;DHT22;4639;48.862;9.188;2023-06-04T15:34:59;31.50;74.60
9209;DHT22;4639;48.862;9.188;2023-06-04T15:37:25;31.60;76.50
9209;DHT22;4639;48.862;9.188;2023-06-04T15:39:51;31.60;74.30
9209;DHT22;4639;48.862;9.188;2023-06-04T15:42:17;31.70;78.10
9209;DHT22;4639;48.862;9.188;2023-06-04T15:44:42;31.80;75.20
9209;DHT22;4639;48.862;9.188;2023-06-04T15:47:08;32.00;75.60
9209;DHT22;4639;48.862;9.188;2023-06-04T15:49:34;32.20;74.60
9209;DHT22;4639;48.862;9.188;2023-06-04T15:51:59;32.20;71.60
9209;DHT22;4639;48.862;9.188;2023-06-04T15:54:25;32.30;72.50
9209;DHT22;4639;48.862;9.188;2023-06-04T15:56:51;32.30;72.30
9209;DHT22;4639;48.862;9.188;2023-06-04T15:59:16;32.10;71.00
9209;DHT22;4639;48.862;9.188;2023-06-04T16:01:42;32.00;71.60
9209;DHT22;4639;48.862;9.188;2023-06-04T16:04:11;31.80;73.50
9209;DHT22;4639;48.862;9.188;2023-06-04T16:06:37;31.90;72.90
9209;DHT22;4639;48.862;9.188;2023-06-04T16:09:03;32.00;73.00